sensor_id;sensor_type;location;lat;lon;timestamp;P1;durP1;ratioP1;P2;durP2;ratioP2
18875;SDS011;9570;50.854;13.778;2023-03-03T00:00:56;24.90;;;13.97;;
18875;SDS011;9570;50.854;13.778;2023-03-03T00:03:22;23.20;;;13.30;;
18875;SDS011;9570;50.854;13.778;2023-03-03T00:05:50;24.80;;;14.75;;
18875;SDS011;9570;50.854;13.778;2023-03-03T00:08:16;23.83;;;13.95;;
18875;SDS011;9570;50.854;13.778;2023-03-03T00:10:43;23.35;;;14.23;;
18875;SDS011;9570;50.854;13.778;2023-03-03T00:13:13;24.37;;;14.27;;
18875;SDS011;9570;50.854;13.778;2023-03-03T00:15:40;23.98;;;13.10;;
18875;SDS011;9570;50.854;13.778;2023-03-03T00:18:12;25.10;;;13.97;;
18875;SDS011;9570;50.854;13.778;2023-03-03T00:20:55;24.58;;;13.80;;
18875;SDS011;9570;50.854;13.778;2023-03-03T00:26:00;25.20;;;13.30;;
18875;SDS011;9570;50.854;13.778;2023-03-03T00:30:57;22.65;;;13.07;;
18875;SDS011;9570;50.854;13.778;2023-03-03T00:33:25;23.70;;;13.65;;
18875;SDS011;9570;50.854;13.778;2023-03-03T00:38:40;25.67;;;13.65;;
18875;SDS011;9570;50.854;13.778;2023-03-03T00:41:13;22.90;;;12.98;;
18875;SDS011;9570;50.854;13.778;2023-03-03T00:43:48;23.35;;;12.93;;
18875;SDS011;9570;50.854;13.778;2023-03-03T00:46:17;24.05;;;13.25;;
18875;SDS011;9570;50.854;13.778;2023-03-03T00:48:45;23.45;;;13.85;;
18875;SDS011;9570;50.854;13.778;2023-03-03T00:53:54;27.13;;;14.82;;
18875;SDS011;9570;50.854;13.778;2023-03-03T00:56:21;28.70;;;14.70;;
18875;SDS011;9570;50.854;13.778;2023-03-03T00:58:46;30.67;;;14.73;;
18875;SDS011;9570;50.854;13.778;2023-03-03T01:01:13;25.53;;;13.60;;
18875;SDS011;9570;50.854;13.778;2023-03-03T01:03:39;26.70;;;14.45;;
18875;SDS011;9570;50.854;13.778;2023-03-03T01:06:04;27.57;;;13.67;;
18875;SDS011;9570;50.854;13.778;2023-03-03T01:08:30;27.73;;;14.50;;
18875;SDS011;9570;50.854;13.778;2023-03-03T01:10:57;24.58;;;14.13;;
18875;SDS011;9570;50.854;13.778;2023-03-03T01:13:29;25.15;;;14.45;;
18875;SDS011;9570;50.854;13.778;2023-03-03T01:15:58;27.08;;;15.02;;
18875;SDS011;9570;50.854;13.778;2023-03-03T01:18:25;28.67;;;14.57;;
18875;SDS011;9570;50.854;13.778;2023-03-03T01:20:51;28.70;;;14.88;;
18875;SDS011;9570;50.854;13.778;2023-03-03T01:23:16;27.00;;;14.10;;
18875;SDS011;9570;50.854;13.778;2023-03-03T01:25:42;24.83;;;14.20;;
18875;SDS011;9570;50.854;13.778;2023-03-03T01:28:07;23.30;;;13.57;;
18875;SDS011;9570;50.854;13.778;2023-03-03T01:30:33;24.70;;;14.00;;
18875;SDS011;9570;50.854;13.778;2023-03-03T01:32:59;27.70;;;13.97;;
18875;SDS011;9570;50.854;13.778;2023-03-03T01:35:25;25.33;;;13.33;;
18875;SDS011;9570;50.854;13.778;2023-03-03T01:37:50;24.10;;;13.93;;
18875;SDS011;9570;50.854;13.778;2023-03-03T01:40:21;22.13;;;13.33;;
18875;SDS011;9570;50.854;13.778;2023-03-03T01:42:51;24.42;;;13.95;;
18875;SDS011;9570;50.854;13.778;2023-03-03T01:45:18;27.07;;;14.17;;
18875;SDS011;9570;50.854;13.778;2023-03-03T01:47:47;26.33;;;14.48;;
18875;SDS011;9570;50.854;13.778;2023-03-03T01:50:33;23.73;;;13.10;;
18875;SDS011;9570;50.854;13.778;2023-03-03T01:53:15;26.38;;;13.77;;
18875;SDS011;9570;50.854;13.778;2023-03-03T01:55:52;26.88;;;14.35;;
18875;SDS011;9570;50.854;13.778;2023-03-03T01:58:25;27.63;;;14.40;;
18875;SDS011;9570;50.854;13.778;2023-03-03T02:00:56;27.48;;;13.93;;
18875;SDS011;9570;50.854;13.778;2023-03-03T02:03:26;25.25;;;13.13;;
18875;SDS011;9570;50.854;13.778;2023-03-03T02:05:53;26.73;;;14.07;;
18875;SDS011;9570;50.854;13.778;2023-03-03T02:08:21;27.17;;;14.02;;
18875;SDS011;9570;50.854;13.778;2023-03-03T02:10:52;26.30;;;13.38;;
18875;SDS011;9570;50.854;13.778;2023-03-03T02:13:18;25.35;;;14.10;;
18875;SDS011;9570;50.854;13.778;2023-03-03T02:15:44;27.10;;;14.80;;
18875;SDS011;9570;50.854;13.778;2023-03-03T02:18:11;29.13;;;14.85;;
18875;SDS011;9570;50.854;13.778;2023-03-03T02:23:32;27.27;;;15.73;;
18875;SDS011;9570;50.854;13.778;2023-03-03T02:26:04;41.00;;;18.30;;
18875;SDS011;9570;50.854;13.778;2023-03-03T02:28:35;37.67;;;18.00;;
18875;SDS011;9570;50.854;13.778;2023-03-03T02:31:04;33.55;;;16.63;;
18875;SDS011;9570;50.854;13.778;2023-03-03T02:33:32;34.30;;;17.70;;
18875;SDS011;9570;50.854;13.778;2023-03-03T02:35:57;37.03;;;18.67;;
18875;SDS011;9570;50.854;13.778;2023-03-03T02:38:30;45.40;;;20.83;;
18875;SDS011;9570;50.854;13.778;2023-03-03T02:41:13;44.13;;;22.05;;
18875;SDS011;9570;50.854;13.778;2023-03-03T02:43:55;40.08;;;19.27;;
18875;SDS011;9570;50.854;13.778;2023-03-03T02:46:32;44.85;;;21.98;;
18875;SDS011;9570;50.854;13.778;2023-03-03T02:49:09;44.72;;;21.13;;
18875;SDS011;9570;50.854;13.778;2023-03-03T02:51:37;52.45;;;22.15;;
18875;SDS011;9570;50.854;13.778;2023-03-03T02:54:03;47.65;;;21.63;;
18875;SDS011;9570;50.854;13.778;2023-03-03T02:56:29;44.00;;;20.67;;
18875;SDS011;9570;50.854;13.778;2023-03-03T02:58:55;43.17;;;20.53;;
18875;SDS011;9570;50.854;13.778;2023-03-03T03:01:21;43.43;;;20.27;;
18875;SDS011;9570;50.854;13.778;2023-03-03T03:03:46;43.80;;;20.03;;
18875;SDS011;9570;50.854;13.778;2023-03-03T03:06:12;39.43;;;20.10;;
18875;SDS011;9570;50.854;13.778;2023-03-03T03:08:38;42.35;;;20.95;;
18875;SDS011;9570;50.854;13.778;2023-03-03T03:11:04;40.97;;;21.37;;
18875;SDS011;9570;50.854;13.778;2023-03-03T03:13:30;40.28;;;20.95;;
18875;SDS011;9570;50.854;13.778;2023-03-03T03:15:56;39.83;;;20.33;;
18875;SDS011;9570;50.854;13.778;2023-03-03T03:18:22;37.70;;;21.00;;
18875;SDS011;9570;50.854;13.778;2023-03-03T03:20:47;45.67;;;21.43;;
18875;SDS011;9570;50.854;13.778;2023-03-03T03:23:13;45.83;;;19.63;;
18875;SDS011;9570;50.854;13.778;2023-03-03T03:25:40;40.50;;;20.15;;
18875;SDS011;9570;50.854;13.778;2023-03-03T03:28:13;40.88;;;20.90;;
18875;SDS011;9570;50.854;13.778;2023-03-03T03:30:40;43.22;;;20.63;;
18875;SDS011;9570;50.854;13.778;2023-03-03T03:33:06;38.17;;;19.77;;
18875;SDS011;9570;50.854;13.778;2023-03-03T03:35:33;45.33;;;20.35;;
18875;SDS011;9570;50.854;13.778;2023-03-03T03:37:59;38.67;;;20.35;;
18875;SDS011;9570;50.854;13.778;2023-03-03T03:40:24;38.13;;;20.17;;
18875;SDS011;9570;50.854;13.778;2023-03-03T03:42:50;42.45;;;21.27;;
18875;SDS011;9570;50.854;13.778;2023-03-03T03:45:19;42.38;;;20.60;;
18875;SDS011;9570;50.854;13.778;2023-03-03T03:47:45;40.77;;;20.77;;
18875;SDS011;9570;50.854;13.778;2023-03-03T03:50:10;40.30;;;21.50;;
18875;SDS011;9570;50.854;13.778;2023-03-03T03:52:37;40.80;;;20.92;;
18875;SDS011;9570;50.854;13.778;2023-03-03T03:55:02;40.03;;;21.07;;
18875;SDS011;9570;50.854;13.778;2023-03-03T03:57:28;43.83;;;22.10;;
18875;SDS011;9570;50.854;13.778;2023-03-03T03:59:53;48.37;;;22.80;;
18875;SDS011;9570;50.854;13.778;2023-03-03T04:02:19;42.27;;;21.93;;
18875;SDS011;9570;50.854;13.778;2023-03-03T04:04:44;43.33;;;22.93;;
18875;SDS011;9570;50.854;13.778;2023-03-03T04:07:10;42.73;;;21.60;;
18875;SDS011;9570;50.854;13.778;2023-03-03T04:09:35;40.00;;;20.97;;
18875;SDS011;9570;50.854;13.778;2023-03-03T04:12:01;41.83;;;21.73;;
18875;SDS011;9570;50.854;13.778;2023-03-03T04:14:27;37.37;;;20.13;;
18875;SDS011;9570;50.854;13.778;2023-03-03T04:16:52;44.00;;;21.57;;
18875;SDS011;9570;50.854;13.778;2023-03-03T04:19:18;38.97;;;20.90;;
18875;SDS011;9570;50.854;13.778;2023-03-03T04:21:43;39.87;;;20.90;;
18875;SDS011;9570;50.854;13.778;2023-03-03T04:24:08;42.67;;;20.90;;
18875;SDS011;9570;50.854;13.778;2023-03-03T04:26:34;41.97;;;21.07;;
18875;SDS011;9570;50.854;13.778;2023-03-03T04:28:59;41.17;;;20.37;;
18875;SDS011;9570;50.854;13.778;2023-03-03T04:31:25;41.00;;;20.67;;
18875;SDS011;9570;50.854;13.778;2023-03-03T04:33:51;41.63;;;21.27;;
18875;SDS011;9570;50.854;13.778;2023-03-03T04:36:17;41.90;;;20.95;;
18875;SDS011;9570;50.854;13.778;2023-03-03T04:38:44;41.05;;;20.20;;
18875;SDS011;9570;50.854;13.778;2023-03-03T04:41:09;41.43;;;20.90;;
18875;SDS011;9570;50.854;13.778;2023-03-03T04:43:35;42.47;;;21.17;;
18875;SDS011;9570;50.854;13.778;2023-03-03T04:46:00;41.63;;;21.43;;
18875;SDS011;9570;50.854;13.778;2023-03-03T04:48:26;40.47;;;20.73;;
18875;SDS011;9570;50.854;13.778;2023-03-03T04:50:52;43.47;;;20.83;;
18875;SDS011;9570;50.854;13.778;2023-03-03T04:53:17;40.93;;;21.37;;
18875;SDS011;9570;50.854;13.778;2023-03-03T04:55:43;43.57;;;22.00;;
18875;SDS011;9570;50.854;13.778;2023-03-03T04:58:08;41.40;;;21.43;;
18875;SDS011;9570;50.854;13.778;2023-03-03T05:00:34;37.83;;;21.03;;
18875;SDS011;9570;50.854;13.778;2023-03-03T05:03:00;39.90;;;20.67;;
18875;SDS011;9570;50.854;13.778;2023-03-03T05:05:26;44.60;;;22.63;;
18875;SDS011;9570;50.854;13.778;2023-03-03T05:07:51;39.77;;;21.03;;
18875;SDS011;9570;50.854;13.778;2023-03-03T05:10:17;44.13;;;22.93;;
18875;SDS011;9570;50.854;13.778;2023-03-03T05:12:43;45.03;;;23.37;;
18875;SDS011;9570;50.854;13.778;2023-03-03T05:15:08;44.63;;;24.00;;
18875;SDS011;9570;50.854;13.778;2023-03-03T05:17:34;51.42;;;24.42;;
18875;SDS011;9570;50.854;13.778;2023-03-03T05:20:00;50.87;;;24.53;;
18875;SDS011;9570;50.854;13.778;2023-03-03T05:22:25;50.63;;;24.70;;
18875;SDS011;9570;50.854;13.778;2023-03-03T05:24:51;53.43;;;24.83;;
18875;SDS011;9570;50.854;13.778;2023-03-03T05:27:17;51.70;;;25.95;;
18875;SDS011;9570;50.854;13.778;2023-03-03T05:29:43;47.93;;;24.23;;
18875;SDS011;9570;50.854;13.778;2023-03-03T05:32:08;52.67;;;25.30;;
18875;SDS011;9570;50.854;13.778;2023-03-03T05:34:34;50.73;;;25.23;;
18875;SDS011;9570;50.854;13.778;2023-03-03T05:36:59;45.53;;;24.63;;
18875;SDS011;9570;50.854;13.778;2023-03-03T05:39:25;48.83;;;25.43;;
18875;SDS011;9570;50.854;13.778;2023-03-03T05:41:50;50.30;;;24.80;;
18875;SDS011;9570;50.854;13.778;2023-03-03T05:44:16;52.83;;;24.77;;
18875;SDS011;9570;50.854;13.778;2023-03-03T05:46:41;47.53;;;24.43;;
18875;SDS011;9570;50.854;13.778;2023-03-03T05:49:07;50.97;;;24.83;;
18875;SDS011;9570;50.854;13.778;2023-03-03T05:51:33;53.30;;;24.43;;
18875;SDS011;9570;50.854;13.778;2023-03-03T05:53:58;45.90;;;23.73;;
18875;SDS011;9570;50.854;13.778;2023-03-03T05:56:24;49.50;;;24.83;;
18875;SDS011;9570;50.854;13.778;2023-03-03T05:58:49;45.80;;;23.60;;
18875;SDS011;9570;50.854;13.778;2023-03-03T06:01:15;50.63;;;24.33;;
18875;SDS011;9570;50.854;13.778;2023-03-03T06:03:40;49.07;;;25.73;;
18875;SDS011;9570;50.854;13.778;2023-03-03T06:06:06;46.57;;;23.67;;
18875;SDS011;9570;50.854;13.778;2023-03-03T06:08:33;49.08;;;23.75;;
18875;SDS011;9570;50.854;13.778;2023-03-03T06:10:58;50.67;;;24.67;;
18875;SDS011;9570;50.854;13.778;2023-03-03T06:13:24;49.97;;;24.20;;
18875;SDS011;9570;50.854;13.778;2023-03-03T06:15:50;47.75;;;23.00;;
18875;SDS011;9570;50.854;13.778;2023-03-03T06:18:16;50.80;;;24.20;;
18875;SDS011;9570;50.854;13.778;2023-03-03T06:20:41;50.17;;;24.87;;
18875;SDS011;9570;50.854;13.778;2023-03-03T06:23:07;51.43;;;25.53;;
18875;SDS011;9570;50.854;13.778;2023-03-03T06:25:32;63.20;;;27.03;;
18875;SDS011;9570;50.854;13.778;2023-03-03T06:27:59;49.50;;;24.08;;
18875;SDS011;9570;50.854;13.778;2023-03-03T06:30:25;54.00;;;24.53;;
18875;SDS011;9570;50.854;13.778;2023-03-03T06:32:52;51.25;;;25.20;;
18875;SDS011;9570;50.854;13.778;2023-03-03T06:35:18;50.50;;;25.93;;
18875;SDS011;9570;50.854;13.778;2023-03-03T06:37:43;50.20;;;26.20;;
18875;SDS011;9570;50.854;13.778;2023-03-03T06:40:09;48.03;;;25.37;;
18875;SDS011;9570;50.854;13.778;2023-03-03T06:42:35;45.72;;;23.42;;
18875;SDS011;9570;50.854;13.778;2023-03-03T06:45:00;42.90;;;23.10;;
18875;SDS011;9570;50.854;13.778;2023-03-03T06:47:26;49.47;;;25.03;;
18875;SDS011;9570;50.854;13.778;2023-03-03T06:49:51;53.10;;;23.77;;
18875;SDS011;9570;50.854;13.778;2023-03-03T06:52:18;50.70;;;24.60;;
18875;SDS011;9570;50.854;13.778;2023-03-03T06:54:47;48.78;;;24.17;;
18875;SDS011;9570;50.854;13.778;2023-03-03T06:57:27;51.67;;;24.42;;
18875;SDS011;9570;50.854;13.778;2023-03-03T06:59:55;47.00;;;23.55;;
18875;SDS011;9570;50.854;13.778;2023-03-03T07:02:24;47.97;;;22.60;;
18875;SDS011;9570;50.854;13.778;2023-03-03T07:04:49;44.60;;;23.30;;
18875;SDS011;9570;50.854;13.778;2023-03-03T07:07:19;44.33;;;22.73;;
18875;SDS011;9570;50.854;13.778;2023-03-03T07:09:47;46.58;;;23.98;;
18875;SDS011;9570;50.854;13.778;2023-03-03T07:12:15;57.10;;;28.30;;
18875;SDS011;9570;50.854;13.778;2023-03-03T07:14:44;61.40;;;28.15;;
18875;SDS011;9570;50.854;13.778;2023-03-03T07:17:16;60.40;;;29.92;;
18875;SDS011;9570;50.854;13.778;2023-03-03T07:19:44;55.25;;;28.17;;
18875;SDS011;9570;50.854;13.778;2023-03-03T07:22:13;54.72;;;27.10;;
18875;SDS011;9570;50.854;13.778;2023-03-03T07:24:40;56.03;;;28.33;;
18875;SDS011;9570;50.854;13.778;2023-03-03T07:27:12;52.00;;;24.80;;
18875;SDS011;9570;50.854;13.778;2023-03-03T07:29:47;55.17;;;26.00;;
18875;SDS011;9570;50.854;13.778;2023-03-03T07:35:03;42.65;;;21.25;;
18875;SDS011;9570;50.854;13.778;2023-03-03T07:37:49;41.28;;;21.60;;
18875;SDS011;9570;50.854;13.778;2023-03-03T07:40:33;41.30;;;21.77;;
18875;SDS011;9570;50.854;13.778;2023-03-03T07:43:26;49.97;;;23.52;;
18875;SDS011;9570;50.854;13.778;2023-03-03T07:45:57;43.10;;;21.90;;
18875;SDS011;9570;50.854;13.778;2023-03-03T07:48:34;41.72;;;21.45;;
18875;SDS011;9570;50.854;13.778;2023-03-03T07:51:11;43.45;;;23.65;;
18875;SDS011;9570;50.854;13.778;2023-03-03T07:53:43;44.38;;;22.52;;
18875;SDS011;9570;50.854;13.778;2023-03-03T07:56:13;40.93;;;23.03;;
18875;SDS011;9570;50.854;13.778;2023-03-03T07:58:50;42.47;;;22.98;;
18875;SDS011;9570;50.854;13.778;2023-03-03T08:01:26;39.63;;;21.83;;
18875;SDS011;9570;50.854;13.778;2023-03-03T08:03:53;42.10;;;22.88;;
18875;SDS011;9570;50.854;13.778;2023-03-03T08:08:47;48.38;;;24.60;;
18875;SDS011;9570;50.854;13.778;2023-03-03T08:11:13;43.60;;;22.83;;
18875;SDS011;9570;50.854;13.778;2023-03-03T08:13:39;38.97;;;22.27;;
18875;SDS011;9570;50.854;13.778;2023-03-03T08:18:36;40.80;;;21.60;;
18875;SDS011;9570;50.854;13.778;2023-03-03T08:21:18;45.08;;;23.35;;
18875;SDS011;9570;50.854;13.778;2023-03-03T08:23:48;41.38;;;21.65;;
18875;SDS011;9570;50.854;13.778;2023-03-03T08:26:15;42.00;;;22.00;;
18875;SDS011;9570;50.854;13.778;2023-03-03T08:28:45;40.80;;;21.65;;
18875;SDS011;9570;50.854;13.778;2023-03-03T08:31:11;46.23;;;23.30;;
18875;SDS011;9570;50.854;13.778;2023-03-03T08:33:36;42.60;;;22.60;;
18875;SDS011;9570;50.854;13.778;2023-03-03T08:36:03;39.95;;;21.30;;
18875;SDS011;9570;50.854;13.778;2023-03-03T08:38:29;41.95;;;22.20;;
18875;SDS011;9570;50.854;13.778;2023-03-03T08:40:55;43.57;;;22.60;;
18875;SDS011;9570;50.854;13.778;2023-03-03T08:43:20;40.53;;;23.20;;
18875;SDS011;9570;50.854;13.778;2023-03-03T08:45:47;39.80;;;22.23;;
18875;SDS011;9570;50.854;13.778;2023-03-03T08:48:14;37.17;;;21.05;;
18875;SDS011;9570;50.854;13.778;2023-03-03T08:50:41;39.28;;;21.50;;
18875;SDS011;9570;50.854;13.778;2023-03-03T08:53:07;44.78;;;22.45;;
18875;SDS011;9570;50.854;13.778;2023-03-03T08:55:33;40.72;;;21.67;;
18875;SDS011;9570;50.854;13.778;2023-03-03T08:57:58;34.97;;;19.27;;
18875;SDS011;9570;50.854;13.778;2023-03-03T09:00:24;38.13;;;19.73;;
18875;SDS011;9570;50.854;13.778;2023-03-03T09:02:50;37.50;;;20.55;;
18875;SDS011;9570;50.854;13.778;2023-03-03T09:05:17;35.63;;;19.10;;
18875;SDS011;9570;50.854;13.778;2023-03-03T09:07:43;35.97;;;20.25;;
18875;SDS011;9570;50.854;13.778;2023-03-03T09:10:11;37.45;;;19.55;;
18875;SDS011;9570;50.854;13.778;2023-03-03T09:12:40;37.85;;;20.20;;
18875;SDS011;9570;50.854;13.778;2023-03-03T09:17:46;39.13;;;20.55;;
18875;SDS011;9570;50.854;13.778;2023-03-03T09:20:20;39.22;;;21.05;;
18875;SDS011;9570;50.854;13.778;2023-03-03T09:22:51;38.05;;;20.80;;
18875;SDS011;9570;50.854;13.778;2023-03-03T09:25:19;37.37;;;20.10;;
18875;SDS011;9570;50.854;13.778;2023-03-03T09:27:45;36.22;;;19.30;;
18875;SDS011;9570;50.854;13.778;2023-03-03T09:30:20;35.40;;;19.43;;
18875;SDS011;9570;50.854;13.778;2023-03-03T09:32:58;30.85;;;16.98;;
18875;SDS011;9570;50.854;13.778;2023-03-03T09:35:32;34.23;;;17.97;;
18875;SDS011;9570;50.854;13.778;2023-03-03T09:38:00;23.15;;;13.05;;
18875;SDS011;9570;50.854;13.778;2023-03-03T09:43:16;21.48;;;12.50;;
18875;SDS011;9570;50.854;13.778;2023-03-03T09:52:01;26.17;;;14.07;;
18875;SDS011;9570;50.854;13.778;2023-03-03T09:54:41;25.33;;;13.60;;
18875;SDS011;9570;50.854;13.778;2023-03-03T09:57:19;28.30;;;15.77;;
18875;SDS011;9570;50.854;13.778;2023-03-03T10:08:31;29.27;;;15.27;;
18875;SDS011;9570;50.854;13.778;2023-03-03T10:11:37;28.42;;;14.77;;
18875;SDS011;9570;50.854;13.778;2023-03-03T10:14:27;31.23;;;15.75;;
18875;SDS011;9570;50.854;13.778;2023-03-03T10:17:16;23.92;;;13.43;;
18875;SDS011;9570;50.854;13.778;2023-03-03T10:22:23;28.55;;;15.45;;
18875;SDS011;9570;50.854;13.778;2023-03-03T10:25:24;29.40;;;14.88;;
18875;SDS011;9570;50.854;13.778;2023-03-03T10:33:26;27.92;;;15.02;;
18875;SDS011;9570;50.854;13.778;2023-03-03T10:36:02;30.60;;;15.55;;
18875;SDS011;9570;50.854;13.778;2023-03-03T10:41:49;26.55;;;14.50;;
18875;SDS011;9570;50.854;13.778;2023-03-03T10:44:42;30.42;;;15.38;;
18875;SDS011;9570;50.854;13.778;2023-03-03T10:47:38;27.98;;;15.23;;
18875;SDS011;9570;50.854;13.778;2023-03-03T10:50:15;27.85;;;14.95;;
18875;SDS011;9570;50.854;13.778;2023-03-03T10:53:10;27.88;;;15.50;;
18875;SDS011;9570;50.854;13.778;2023-03-03T11:01:31;31.38;;;15.77;;
18875;SDS011;9570;50.854;13.778;2023-03-03T11:04:13;26.05;;;14.65;;
18875;SDS011;9570;50.854;13.778;2023-03-03T11:07:10;27.85;;;14.50;;
18875;SDS011;9570;50.854;13.778;2023-03-03T11:12:49;27.23;;;14.77;;
18875;SDS011;9570;50.854;13.778;2023-03-03T11:26:18;23.38;;;12.98;;
18875;SDS011;9570;50.854;13.778;2023-03-03T11:29:18;25.40;;;14.25;;
18875;SDS011;9570;50.854;13.778;2023-03-03T11:37:19;23.73;;;13.60;;
18875;SDS011;9570;50.854;13.778;2023-03-03T11:39:52;25.80;;;13.98;;
18875;SDS011;9570;50.854;13.778;2023-03-03T11:42:31;23.75;;;12.50;;
18875;SDS011;9570;50.854;13.778;2023-03-03T11:47:44;21.15;;;12.30;;
18875;SDS011;9570;50.854;13.778;2023-03-03T11:50:30;19.60;;;11.23;;
18875;SDS011;9570;50.854;13.778;2023-03-03T11:55:59;21.58;;;11.07;;
18875;SDS011;9570;50.854;13.778;2023-03-03T11:58:41;20.77;;;11.43;;
18875;SDS011;9570;50.854;13.778;2023-03-03T12:01:14;18.67;;;11.00;;
18875;SDS011;9570;50.854;13.778;2023-03-03T12:03:52;16.77;;;9.77;;
18875;SDS011;9570;50.854;13.778;2023-03-03T12:09:41;18.85;;;10.40;;
18875;SDS011;9570;50.854;13.778;2023-03-03T12:12:18;17.15;;;10.40;;
18875;SDS011;9570;50.854;13.778;2023-03-03T12:15:01;19.40;;;10.93;;
18875;SDS011;9570;50.854;13.778;2023-03-03T12:17:55;16.87;;;10.37;;
18875;SDS011;9570;50.854;13.778;2023-03-03T12:26:17;24.52;;;12.45;;
18875;SDS011;9570;50.854;13.778;2023-03-03T12:28:54;24.40;;;11.70;;
18875;SDS011;9570;50.854;13.778;2023-03-03T12:31:32;21.08;;;11.77;;
18875;SDS011;9570;50.854;13.778;2023-03-03T12:34:10;21.40;;;11.45;;
18875;SDS011;9570;50.854;13.778;2023-03-03T12:37:18;17.25;;;9.95;;
18875;SDS011;9570;50.854;13.778;2023-03-03T12:40:08;17.92;;;9.88;;
18875;SDS011;9570;50.854;13.778;2023-03-03T12:43:05;19.23;;;10.57;;
18875;SDS011;9570;50.854;13.778;2023-03-03T12:46:06;17.65;;;10.95;;
18875;SDS011;9570;50.854;13.778;2023-03-03T12:48:41;23.75;;;12.05;;
18875;SDS011;9570;50.854;13.778;2023-03-03T12:54:05;22.92;;;12.32;;
18875;SDS011;9570;50.854;13.778;2023-03-03T12:56:54;25.08;;;12.63;;
18875;SDS011;9570;50.854;13.778;2023-03-03T13:02:29;17.97;;;9.80;;
18875;SDS011;9570;50.854;13.778;2023-03-03T13:05:18;15.82;;;9.80;;
18875;SDS011;9570;50.854;13.778;2023-03-03T13:07:55;15.60;;;9.60;;
18875;SDS011;9570;50.854;13.778;2023-03-03T13:16:12;12.77;;;7.25;;
18875;SDS011;9570;50.854;13.778;2023-03-03T13:18:47;11.33;;;6.77;;
18875;SDS011;9570;50.854;13.778;2023-03-03T13:21:23;12.82;;;6.80;;
18875;SDS011;9570;50.854;13.778;2023-03-03T13:24:15;9.97;;;6.73;;
18875;SDS011;9570;50.854;13.778;2023-03-03T13:27:07;14.65;;;7.85;;
18875;SDS011;9570;50.854;13.778;2023-03-03T13:29:51;12.13;;;6.83;;
18875;SDS011;9570;50.854;13.778;2023-03-03T13:32:56;11.98;;;7.07;;
18875;SDS011;9570;50.854;13.778;2023-03-03T13:35:31;9.87;;;6.33;;
18875;SDS011;9570;50.854;13.778;2023-03-03T13:37:57;14.35;;;7.45;;
18875;SDS011;9570;50.854;13.778;2023-03-03T13:40:32;12.90;;;7.73;;
18875;SDS011;9570;50.854;13.778;2023-03-03T13:43:17;11.43;;;7.77;;
18875;SDS011;9570;50.854;13.778;2023-03-03T13:48:44;10.60;;;6.50;;
18875;SDS011;9570;50.854;13.778;2023-03-03T13:51:30;11.63;;;6.60;;
18875;SDS011;9570;50.854;13.778;2023-03-03T13:54:18;8.50;;;6.40;;
18875;SDS011;9570;50.854;13.778;2023-03-03T13:57:24;10.93;;;7.07;;
18875;SDS011;9570;50.854;13.778;2023-03-03T14:00:10;9.77;;;5.90;;
18875;SDS011;9570;50.854;13.778;2023-03-03T14:05:50;9.53;;;6.03;;
18875;SDS011;9570;50.854;13.778;2023-03-03T14:11:10;10.07;;;6.37;;
18875;SDS011;9570;50.854;13.778;2023-03-03T14:13:48;11.60;;;5.90;;
18875;SDS011;9570;50.854;13.778;2023-03-03T14:16:39;11.83;;;6.37;;
18875;SDS011;9570;50.854;13.778;2023-03-03T14:19:24;11.10;;;6.60;;
18875;SDS011;9570;50.854;13.778;2023-03-03T14:22:16;11.93;;;5.93;;
18875;SDS011;9570;50.854;13.778;2023-03-03T14:25:07;9.95;;;6.25;;
18875;SDS011;9570;50.854;13.778;2023-03-03T14:27:52;12.80;;;6.55;;
18875;SDS011;9570;50.854;13.778;2023-03-03T14:30:28;11.10;;;6.13;;
18875;SDS011;9570;50.854;13.778;2023-03-03T14:35:38;12.50;;;7.00;;
18875;SDS011;9570;50.854;13.778;2023-03-03T14:41:03;9.18;;;6.18;;
18875;SDS011;9570;50.854;13.778;2023-03-03T14:43:38;8.70;;;5.83;;
18875;SDS011;9570;50.854;13.778;2023-03-03T14:49:05;11.48;;;6.90;;
18875;SDS011;9570;50.854;13.778;2023-03-03T14:51:41;10.93;;;6.53;;
18875;SDS011;9570;50.854;13.778;2023-03-03T14:57:01;11.05;;;6.93;;
18875;SDS011;9570;50.854;13.778;2023-03-03T14:59:36;11.23;;;7.20;;
18875;SDS011;9570;50.854;13.778;2023-03-03T15:02:09;12.60;;;7.33;;
18875;SDS011;9570;50.854;13.778;2023-03-03T15:05:11;11.75;;;7.35;;
18875;SDS011;9570;50.854;13.778;2023-03-03T15:07:40;10.23;;;6.60;;
18875;SDS011;9570;50.854;13.778;2023-03-03T15:10:06;11.17;;;7.33;;
18875;SDS011;9570;50.854;13.778;2023-03-03T15:12:34;10.57;;;7.00;;
18875;SDS011;9570;50.854;13.778;2023-03-03T15:17:33;10.75;;;7.38;;
18875;SDS011;9570;50.854;13.778;2023-03-03T15:25:02;11.47;;;7.17;;
18875;SDS011;9570;50.854;13.778;2023-03-03T15:28:36;10.77;;;6.85;;
18875;SDS011;9570;50.854;13.778;2023-03-03T15:30:49;11.13;;;7.05;;
18875;SDS011;9570;50.854;13.778;2023-03-03T15:34:16;11.52;;;7.13;;
18875;SDS011;9570;50.854;13.778;2023-03-03T15:36:50;11.43;;;7.28;;
18875;SDS011;9570;50.854;13.778;2023-03-03T15:45:14;13.27;;;7.53;;
18875;SDS011;9570;50.854;13.778;2023-03-03T15:50:57;14.20;;;7.95;;
18875;SDS011;9570;50.854;13.778;2023-03-03T15:53:41;13.85;;;8.52;;
18875;SDS011;9570;50.854;13.778;2023-03-03T15:56:28;14.70;;;8.38;;
18875;SDS011;9570;50.854;13.778;2023-03-03T16:01:56;14.30;;;8.50;;
18875;SDS011;9570;50.854;13.778;2023-03-03T16:04:55;15.23;;;9.05;;
18875;SDS011;9570;50.854;13.778;2023-03-03T16:12:51;16.58;;;10.32;;
18875;SDS011;9570;50.854;13.778;2023-03-03T16:18:01;14.80;;;9.45;;
18875;SDS011;9570;50.854;13.778;2023-03-03T16:20:43;16.45;;;8.90;;
18875;SDS011;9570;50.854;13.778;2023-03-03T16:28:58;15.80;;;8.98;;
18875;SDS011;9570;50.854;13.778;2023-03-03T16:31:40;14.45;;;8.05;;
18875;SDS011;9570;50.854;13.778;2023-03-03T16:34:24;14.55;;;8.32;;
18875;SDS011;9570;50.854;13.778;2023-03-03T16:37:17;15.30;;;8.50;;
18875;SDS011;9570;50.854;13.778;2023-03-03T16:39:51;14.00;;;8.25;;
18875;SDS011;9570;50.854;13.778;2023-03-03T16:42:28;13.10;;;7.75;;
18875;SDS011;9570;50.854;13.778;2023-03-03T16:45:04;13.07;;;7.93;;
18875;SDS011;9570;50.854;13.778;2023-03-03T16:50:16;13.55;;;7.82;;
18875;SDS011;9570;50.854;13.778;2023-03-03T16:52:54;12.93;;;7.93;;
18875;SDS011;9570;50.854;13.778;2023-03-03T16:55:31;13.02;;;7.72;;
18875;SDS011;9570;50.854;13.778;2023-03-03T16:58:07;13.63;;;8.07;;
18875;SDS011;9570;50.854;13.778;2023-03-03T17:03:33;13.25;;;8.43;;
18875;SDS011;9570;50.854;13.778;2023-03-03T17:06:15;11.93;;;8.20;;
18875;SDS011;9570;50.854;13.778;2023-03-03T17:08:56;11.52;;;7.65;;
18875;SDS011;9570;50.854;13.778;2023-03-03T17:14:20;15.40;;;8.65;;
18875;SDS011;9570;50.854;13.778;2023-03-03T17:17:19;15.32;;;8.50;;
18875;SDS011;9570;50.854;13.778;2023-03-03T17:34:06;20.05;;;11.05;;
18875;SDS011;9570;50.854;13.778;2023-03-03T17:39:35;19.35;;;11.43;;
18875;SDS011;9570;50.854;13.778;2023-03-03T17:42:16;20.63;;;12.50;;
18875;SDS011;9570;50.854;13.778;2023-03-03T17:45:09;19.85;;;11.88;;
18875;SDS011;9570;50.854;13.778;2023-03-03T18:00:02;22.73;;;14.60;;
18875;SDS011;9570;50.854;13.778;2023-03-03T18:02:36;23.55;;;13.88;;
18875;SDS011;9570;50.854;13.778;2023-03-03T18:08:17;22.70;;;13.23;;
18875;SDS011;9570;50.854;13.778;2023-03-03T18:19:30;23.17;;;13.73;;
18875;SDS011;9570;50.854;13.778;2023-03-03T18:22:33;30.02;;;15.63;;